sensor_id;sensor_type;location;lat;lon;timestamp;temperature;humidity
20349;DHT22;10332;50.208;18.988;2022-07-19T00:01:24;18.90;91.20
20349;DHT22;10332;50.208;18.988;2022-07-19T00:03:52;18.90;91.30
20349;DHT22;10332;50.208;18.988;2022-07-19T00:06:19;18.90;91.20
20349;DHT22;10332;50.208;18.988;2022-07-19T00:08:47;18.90;91.40
20349;DHT22;10332;50.208;18.988;2022-07-19T00:11:14;18.80;91.40
20349;DHT22;10332;50.208;18.988;2022-07-19T00:13:41;18.90;91.30
20349;DHT22;10332;50.208;18.988;2022-07-19T00:16:09;18.80;91.50
20349;DHT22;10332;50.208;18.988;2022-07-19T00:18:36;18.90;91.50
20349;DHT22;10332;50.208;18.988;2022-07-19T00:21:04;18.80;91.50
20349;DHT22;10332;50.208;18.988;2022-07-19T00:23:32;18.80;91.70
20349;DHT22;10332;50.208;18.988;2022-07-19T00:26:00;18.80;91.70
20349;DHT22;10332;50.208;18.988;2022-07-19T00:28:28;18.80;91.70
20349;DHT22;10332;50.208;18.988;2022-07-19T00:30:55;18.70;91.80
20349;DHT22;10332;50.208;18.988;2022-07-19T00:33:23;18.70;91.80
20349;DHT22;10332;50.208;18.988;2022-07-19T00:35:51;18.70;91.80
20349;DHT22;10332;50.208;18.988;2022-07-19T00:38:19;18.80;91.70
20349;DHT22;10332;50.208;18.988;2022-07-19T00:40:46;18.70;91.90
20349;DHT22;10332;50.208;18.988;2022-07-19T00:43:14;18.70;91.90
20349;DHT22;10332;50.208;18.988;2022-07-19T00:45:41;18.70;92.10
20349;DHT22;10332;50.208;18.988;2022-07-19T00:48:08;18.70;92.20
20349;DHT22;10332;50.208;18.988;2022-07-19T00:50:36;18.70;92.50
20349;DHT22;10332;50.208;18.988;2022-07-19T00:53:04;18.60;92.50
20349;DHT22;10332;50.208;18.988;2022-07-19T00:55:34;18.60;92.60
20349;DHT22;10332;50.208;18.988;2022-07-19T00:58:02;18.50;92.90
20349;DHT22;10332;50.208;18.988;2022-07-19T01:00:32;18.50;93.00
20349;DHT22;10332;50.208;18.988;2022-07-19T01:03:01;18.50;93.20
20349;DHT22;10332;50.208;18.988;2022-07-19T01:05:29;18.50;93.20
20349;DHT22;10332;50.208;18.988;2022-07-19T01:07:56;18.50;93.30
20349;DHT22;10332;50.208;18.988;2022-07-19T01:10:24;18.50;93.40
20349;DHT22;10332;50.208;18.988;2022-07-19T01:12:52;18.40;93.60
20349;DHT22;10332;50.208;18.988;2022-07-19T01:15:22;18.40;93.80
20349;DHT22;10332;50.208;18.988;2022-07-19T01:17:52;18.30;93.80
20349;DHT22;10332;50.208;18.988;2022-07-19T01:20:21;18.30;94.00
20349;DHT22;10332;50.208;18.988;2022-07-19T01:22:56;18.20;94.40
20349;DHT22;10332;50.208;18.988;2022-07-19T01:25:25;18.20;94.30
20349;DHT22;10332;50.208;18.988;2022-07-19T01:27:57;18.20;94.70
20349;DHT22;10332;50.208;18.988;2022-07-19T01:30:26;18.20;94.80
20349;DHT22;10332;50.208;18.988;2022-07-19T01:32:55;18.10;95.20
20349;DHT22;10332;50.208;18.988;2022-07-19T01:35:23;18.10;95.20
20349;DHT22;10332;50.208;18.988;2022-07-19T01:37:53;18.00;95.30
20349;DHT22;10332;50.208;18.988;2022-07-19T01:40:20;18.00;95.30
20349;DHT22;10332;50.208;18.988;2022-07-19T01:42:48;18.00;95.50
20349;DHT22;10332;50.208;18.988;2022-07-19T01:45:17;18.00;95.50
20349;DHT22;10332;50.208;18.988;2022-07-19T01:47:45;18.00;95.50
20349;DHT22;10332;50.208;18.988;2022-07-19T01:50:16;18.00;96.00
20349;DHT22;10332;50.208;18.988;2022-07-19T01:52:45;18.00;96.30
20349;DHT22;10332;50.208;18.988;2022-07-19T01:55:18;18.00;96.20
20349;DHT22;10332;50.208;18.988;2022-07-19T01:57:47;18.00;96.00
20349;DHT22;10332;50.208;18.988;2022-07-19T02:00:16;18.00;96.50
20349;DHT22;10332;50.208;18.988;2022-07-19T02:02:44;17.90;97.10
20349;DHT22;10332;50.208;18.988;2022-07-19T02:05:12;17.90;97.10
20349;DHT22;10332;50.208;18.988;2022-07-19T02:07:40;17.90;96.90
20349;DHT22;10332;50.208;18.988;2022-07-19T02:10:08;17.80;97.00
20349;DHT22;10332;50.208;18.988;2022-07-19T02:12:37;17.80;97.00
20349;DHT22;10332;50.208;18.988;2022-07-19T02:15:05;17.80;96.90
20349;DHT22;10332;50.208;18.988;2022-07-19T02:17:33;17.80;97.00
20349;DHT22;10332;50.208;18.988;2022-07-19T02:20:02;17.70;97.10
20349;DHT22;10332;50.208;18.988;2022-07-19T02:22:30;17.70;97.40
20349;DHT22;10332;50.208;18.988;2022-07-19T02:24:57;17.70;97.50
20349;DHT22;10332;50.208;18.988;2022-07-19T02:27:25;17.70;97.60
20349;DHT22;10332;50.208;18.988;2022-07-19T02:29:52;17.70;97.60
20349;DHT22;10332;50.208;18.988;2022-07-19T02:32:19;17.70;97.40
20349;DHT22;10332;50.208;18.988;2022-07-19T02:34:47;17.80;97.60
20349;DHT22;10332;50.208;18.988;2022-07-19T02:37:14;17.80;97.70
20349;DHT22;10332;50.208;18.988;2022-07-19T02:39:41;17.70;97.90
20349;DHT22;10332;50.208;18.988;2022-07-19T02:42:09;17.80;97.60
20349;DHT22;10332;50.208;18.988;2022-07-19T02:44:36;17.70;97.40
20349;DHT22;10332;50.208;18.988;2022-07-19T02:47:03;17.80;97.40
20349;DHT22;10332;50.208;18.988;2022-07-19T02:49:31;17.80;97.20
20349;DHT22;10332;50.208;18.988;2022-07-19T02:51:59;17.80;97.00
20349;DHT22;10332;50.208;18.988;2022-07-19T02:54:27;17.80;96.90
20349;DHT22;10332;50.208;18.988;2022-07-19T02:56:54;17.80;97.00
20349;DHT22;10332;50.208;18.988;2022-07-19T02:59:21;17.80;96.90
20349;DHT22;10332;50.208;18.988;2022-07-19T03:01:48;17.80;96.80
20349;DHT22;10332;50.208;18.988;2022-07-19T03:04:16;17.80;96.70
20349;DHT22;10332;50.208;18.988;2022-07-19T03:06:43;17.80;96.50
20349;DHT22;10332;50.208;18.988;2022-07-19T03:09:11;17.80;96.10
20349;DHT22;10332;50.208;18.988;2022-07-19T03:11:39;17.90;95.80
20349;DHT22;10332;50.208;18.988;2022-07-19T03:14:06;17.90;95.60
20349;DHT22;10332;50.208;18.988;2022-07-19T03:16:34;17.90;95.50
20349;DHT22;10332;50.208;18.988;2022-07-19T03:19:01;17.90;95.40
20349;DHT22;10332;50.208;18.988;2022-07-19T03:21:29;18.00;95.40
20349;DHT22;10332;50.208;18.988;2022-07-19T03:23:56;18.00;95.60
20349;DHT22;10332;50.208;18.988;2022-07-19T03:26:23;18.00;95.90
20349;DHT22;10332;50.208;18.988;2022-07-19T03:28:50;18.00;95.90
20349;DHT22;10332;50.208;18.988;2022-07-19T03:31:19;18.00;96.00
20349;DHT22;10332;50.208;18.988;2022-07-19T03:33:47;17.90;96.20
20349;DHT22;10332;50.208;18.988;2022-07-19T03:36:14;17.90;97.00
20349;DHT22;10332;50.208;18.988;2022-07-19T03:38:41;17.90;96.90
20349;DHT22;10332;50.208;18.988;2022-07-19T03:41:09;17.90;97.00
20349;DHT22;10332;50.208;18.988;2022-07-19T03:43:37;17.90;96.60
20349;DHT22;10332;50.208;18.988;2022-07-19T03:46:05;17.90;96.50
20349;DHT22;10332;50.208;18.988;2022-07-19T03:48:33;18.00;96.30
20349;DHT22;10332;50.208;18.988;2022-07-19T03:51:00;18.00;96.20
20349;DHT22;10332;50.208;18.988;2022-07-19T03:53:27;18.00;96.40
20349;DHT22;10332;50.208;18.988;2022-07-19T03:55:55;18.00;96.20
20349;DHT22;10332;50.208;18.988;2022-07-19T03:58:22;18.00;96.50
20349;DHT22;10332;50.208;18.988;2022-07-19T04:00:49;18.00;96.40
20349;DHT22;10332;50.208;18.988;2022-07-19T04:03:17;18.00;96.50
20349;DHT22;10332;50.208;18.988;2022-07-19T04:05:44;18.00;96.40
20349;DHT22;10332;50.208;18.988;2022-07-19T04:08:12;18.00;96.40
20349;DHT22;10332;50.208;18.988;2022-07-19T04:10:39;18.00;96.30
20349;DHT22;10332;50.208;18.988;2022-07-19T04:13:07;18.00;96.50
20349;DHT22;10332;50.208;18.988;2022-07-19T04:15:35;18.00;96.60
20349;DHT22;10332;50.208;18.988;2022-07-19T04:18:09;18.00;96.50
20349;DHT22;10332;50.208;18.988;2022-07-19T04:20:37;18.10;96.30
20349;DHT22;10332;50.208;18.988;2022-07-19T04:23:05;18.10;96.10
20349;DHT22;10332;50.208;18.988;2022-07-19T04:25:32;18.20;95.90
20349;DHT22;10332;50.208;18.988;2022-07-19T04:27:59;18.30;95.80
20349;DHT22;10332;50.208;18.988;2022-07-19T04:30:29;18.40;95.60
20349;DHT22;10332;50.208;18.988;2022-07-19T04:32:57;18.50;95.30
20349;DHT22;10332;50.208;18.988;2022-07-19T04:35:24;18.70;95.00
20349;DHT22;10332;50.208;18.988;2022-07-19T04:37:51;18.80;94.40
20349;DHT22;10332;50.208;18.988;2022-07-19T04:40:20;18.90;94.40
20349;DHT22;10332;50.208;18.988;2022-07-19T04:42:47;18.90;94.20
20349;DHT22;10332;50.208;18.988;2022-07-19T04:45:14;19.00;93.90
20349;DHT22;10332;50.208;18.988;2022-07-19T04:47:42;19.10;94.00
20349;DHT22;10332;50.208;18.988;2022-07-19T04:50:09;19.20;93.90
20349;DHT22;10332;50.208;18.988;2022-07-19T04:52:36;19.20;93.60
20349;DHT22;10332;50.208;18.988;2022-07-19T04:55:04;19.20;93.30
20349;DHT22;10332;50.208;18.988;2022-07-19T04:57:32;19.20;93.20
20349;DHT22;10332;50.208;18.988;2022-07-19T04:59:59;19.30;92.50
20349;DHT22;10332;50.208;18.988;2022-07-19T05:02:27;19.30;92.50
20349;DHT22;10332;50.208;18.988;2022-07-19T05:04:54;19.40;92.40
20349;DHT22;10332;50.208;18.988;2022-07-19T05:07:21;19.40;92.20
20349;DHT22;10332;50.208;18.988;2022-07-19T05:09:49;19.50;91.90
20349;DHT22;10332;50.208;18.988;2022-07-19T05:12:16;19.40;91.90
20349;DHT22;10332;50.208;18.988;2022-07-19T05:14:43;19.30;91.60
20349;DHT22;10332;50.208;18.988;2022-07-19T05:17:11;19.30;91.30
20349;DHT22;10332;50.208;18.988;2022-07-19T05:19:38;19.30;91.50
20349;DHT22;10332;50.208;18.988;2022-07-19T05:22:06;19.30;91.40
20349;DHT22;10332;50.208;18.988;2022-07-19T05:24:34;19.30;91.60
20349;DHT22;10332;50.208;18.988;2022-07-19T05:27:01;19.30;91.40
20349;DHT22;10332;50.208;18.988;2022-07-19T05:29:28;19.30;91.30
20349;DHT22;10332;50.208;18.988;2022-07-19T05:31:56;19.30;91.10
20349;DHT22;10332;50.208;18.988;2022-07-19T05:34:23;19.40;90.90
20349;DHT22;10332;50.208;18.988;2022-07-19T05:36:50;19.40;90.70
20349;DHT22;10332;50.208;18.988;2022-07-19T05:39:18;19.50;90.40
20349;DHT22;10332;50.208;18.988;2022-07-19T05:41:45;19.50;90.50
20349;DHT22;10332;50.208;18.988;2022-07-19T05:44:12;19.60;90.30
20349;DHT22;10332;50.208;18.988;2022-07-19T05:46:39;19.60;90.10
20349;DHT22;10332;50.208;18.988;2022-07-19T05:49:13;19.60;90.00
20349;DHT22;10332;50.208;18.988;2022-07-19T05:51:41;19.70;89.90
20349;DHT22;10332;50.208;18.988;2022-07-19T05:54:08;19.80;89.30
20349;DHT22;10332;50.208;18.988;2022-07-19T05:56:36;19.90;88.60
20349;DHT22;10332;50.208;18.988;2022-07-19T05:59:04;20.00;88.70
20349;DHT22;10332;50.208;18.988;2022-07-19T06:01:31;20.20;88.40
20349;DHT22;10332;50.208;18.988;2022-07-19T06:04:00;20.40;88.00
20349;DHT22;10332;50.208;18.988;2022-07-19T06:06:32;20.50;87.30
20349;DHT22;10332;50.208;18.988;2022-07-19T06:09:02;20.60;86.70
20349;DHT22;10332;50.208;18.988;2022-07-19T06:11:32;20.60;86.90
20349;DHT22;10332;50.208;18.988;2022-07-19T06:14:00;20.60;87.10
20349;DHT22;10332;50.208;18.988;2022-07-19T06:16:27;20.70;86.50
20349;DHT22;10332;50.208;18.988;2022-07-19T06:18:55;20.70;86.70
20349;DHT22;10332;50.208;18.988;2022-07-19T06:21:22;20.80;86.70
20349;DHT22;10332;50.208;18.988;2022-07-19T06:23:50;20.90;85.80
20349;DHT22;10332;50.208;18.988;2022-07-19T06:26:17;21.00;85.20
20349;DHT22;10332;50.208;18.988;2022-07-19T06:28:45;21.30;84.40
20349;DHT22;10332;50.208;18.988;2022-07-19T06:31:14;21.60;83.30
20349;DHT22;10332;50.208;18.988;2022-07-19T06:33:46;21.80;81.10
20349;DHT22;10332;50.208;18.988;2022-07-19T06:36:15;22.10;79.40
20349;DHT22;10332;50.208;18.988;2022-07-19T06:38:42;22.30;78.70
20349;DHT22;10332;50.208;18.988;2022-07-19T06:41:11;22.40;77.30
20349;DHT22;10332;50.208;18.988;2022-07-19T06:43:40;22.40;77.50
20349;DHT22;10332;50.208;18.988;2022-07-19T06:46:07;22.40;78.00
20349;DHT22;10332;50.208;18.988;2022-07-19T06:48:36;22.30;78.90
20349;DHT22;10332;50.208;18.988;2022-07-19T06:51:07;22.30;80.00
20349;DHT22;10332;50.208;18.988;2022-07-19T06:53:35;22.30;79.70
20349;DHT22;10332;50.208;18.988;2022-07-19T06:56:03;22.20;79.60
20349;DHT22;10332;50.208;18.988;2022-07-19T06:58:31;22.20;77.60
20349;DHT22;10332;50.208;18.988;2022-07-19T07:01:06;22.30;78.00
20349;DHT22;10332;50.208;18.988;2022-07-19T07:03:36;22.30;78.40
20349;DHT22;10332;50.208;18.988;2022-07-19T07:06:04;22.30;76.70
20349;DHT22;10332;50.208;18.988;2022-07-19T07:08:33;22.40;76.80
20349;DHT22;10332;50.208;18.988;2022-07-19T07:11:00;22.50;76.20
20349;DHT22;10332;50.208;18.988;2022-07-19T07:13:29;22.60;75.80
20349;DHT22;10332;50.208;18.988;2022-07-19T07:15:56;22.60;76.40
20349;DHT22;10332;50.208;18.988;2022-07-19T07:18:27;22.70;76.10
20349;DHT22;10332;50.208;18.988;2022-07-19T07:20:54;22.80;76.50
20349;DHT22;10332;50.208;18.988;2022-07-19T07:23:24;22.90;76.80
20349;DHT22;10332;50.208;18.988;2022-07-19T07:25:52;22.90;76.40
20349;DHT22;10332;50.208;18.988;2022-07-19T07:28:20;23.00;76.40
20349;DHT22;10332;50.208;18.988;2022-07-19T07:30:53;23.20;76.30
20349;DHT22;10332;50.208;18.988;2022-07-19T07:33:21;23.40;76.20
20349;DHT22;10332;50.208;18.988;2022-07-19T07:35:48;23.60;73.80
20349;DHT22;10332;50.208;18.988;2022-07-19T07:38:16;23.80;73.20
20349;DHT22;10332;50.208;18.988;2022-07-19T07:40:43;23.90;72.40
20349;DHT22;10332;50.208;18.988;2022-07-19T07:43:10;24.10;71.30
20349;DHT22;10332;50.208;18.988;2022-07-19T07:45:38;24.40;69.80
20349;DHT22;10332;50.208;18.988;2022-07-19T07:48:06;24.80;69.20
20349;DHT22;10332;50.208;18.988;2022-07-19T07:50:33;25.20;65.40
20349;DHT22;10332;50.208;18.988;2022-07-19T07:53:00;25.60;61.50
20349;DHT22;10332;50.208;18.988;2022-07-19T07:55:28;25.90;59.30
20349;DHT22;10332;50.208;18.988;2022-07-19T07:57:56;26.10;57.20
20349;DHT22;10332;50.208;18.988;2022-07-19T08:00:24;26.20;56.60
20349;DHT22;10332;50.208;18.988;2022-07-19T08:02:51;26.40;55.50
20349;DHT22;10332;50.208;18.988;2022-07-19T08:05:21;26.50;53.50
20349;DHT22;10332;50.208;18.988;2022-07-19T08:07:50;26.60;50.90
20349;DHT22;10332;50.208;18.988;2022-07-19T08:10:23;26.60;51.60
20349;DHT22;10332;50.208;18.988;2022-07-19T08:12:52;26.60;51.10
20349;DHT22;10332;50.208;18.988;2022-07-19T08:15:21;26.60;51.00
20349;DHT22;10332;50.208;18.988;2022-07-19T08:17:48;26.70;50.40
20349;DHT22;10332;50.208;18.988;2022-07-19T08:20:17;26.70;49.40
20349;DHT22;10332;50.208;18.988;2022-07-19T08:22:45;26.70;46.50
20349;DHT22;10332;50.208;18.988;2022-07-19T08:25:12;26.70;46.40
20349;DHT22;10332;50.208;18.988;2022-07-19T08:27:44;26.70;46.90
20349;DHT22;10332;50.208;18.988;2022-07-19T08:30:12;26.80;46.80
20349;DHT22;10332;50.208;18.988;2022-07-19T08:32:41;26.90;46.80
20349;DHT22;10332;50.208;18.988;2022-07-19T08:35:09;27.00;45.40
20349;DHT22;10332;50.208;18.988;2022-07-19T08:37:37;27.00;40.40
20349;DHT22;10332;50.208;18.988;2022-07-19T08:40:06;27.00;40.20
20349;DHT22;10332;50.208;18.988;2022-07-19T08:42:35;27.00;29.20
20349;DHT22;10332;50.208;18.988;2022-07-19T08:45:05;27.00;26.80
20349;DHT22;10332;50.208;18.988;2022-07-19T08:47:36;27.10;24.60
20349;DHT22;10332;50.208;18.988;2022-07-19T08:50:07;27.20;23.90
20349;DHT22;10332;50.208;18.988;2022-07-19T08:52:36;27.20;21.50
20349;DHT22;10332;50.208;18.988;2022-07-19T08:55:05;27.30;20.50
20349;DHT22;10332;50.208;18.988;2022-07-19T08:57:34;27.40;20.20
20349;DHT22;10332;50.208;18.988;2022-07-19T09:00:20;27.50;18.40
20349;DHT22;10332;50.208;18.988;2022-07-19T09:02:55;27.60;18.90
20349;DHT22;10332;50.208;18.988;2022-07-19T09:05:28;27.70;18.90
20349;DHT22;10332;50.208;18.988;2022-07-19T09:08:03;27.80;19.10
20349;DHT22;10332;50.208;18.988;2022-07-19T09:10:37;28.00;19.70
20349;DHT22;10332;50.208;18.988;2022-07-19T09:13:14;28.10;15.20
20349;DHT22;10332;50.208;18.988;2022-07-19T09:18:28;28.30;12.40
20349;DHT22;10332;50.208;18.988;2022-07-19T09:21:03;28.50;9.80
20349;DHT22;10332;50.208;18.988;2022-07-19T09:23:33;28.60;9.30
20349;DHT22;10332;50.208;18.988;2022-07-19T09:26:04;28.80;7.80
20349;DHT22;10332;50.208;18.988;2022-07-19T09:28:33;28.90;6.40
20349;DHT22;10332;50.208;18.988;2022-07-19T09:31:03;29.00;6.10
20349;DHT22;10332;50.208;18.988;2022-07-19T09:33:33;29.00;5.30
20349;DHT22;10332;50.208;18.988;2022-07-19T09:36:12;29.10;4.50
20349;DHT22;10332;50.208;18.988;2022-07-19T09:38:40;29.20;2.90
20349;DHT22;10332;50.208;18.988;2022-07-19T09:41:13;29.40;2.60
20349;DHT22;10332;50.208;18.988;2022-07-19T09:44:08;29.90;1.00
20349;DHT22;10332;50.208;18.988;2022-07-19T09:46:40;30.70;1.00
20349;DHT22;10332;50.208;18.988;2022-07-19T09:49:16;31.70;1.00
20349;DHT22;10332;50.208;18.988;2022-07-19T09:51:52;32.80;1.00
20349;DHT22;10332;50.208;18.988;2022-07-19T09:54:25;34.00;1.00
20349;DHT22;10332;50.208;18.988;2022-07-19T09:56:55;35.00;1.00
20349;DHT22;10332;50.208;18.988;2022-07-19T09:59:25;36.00;1.00
20349;DHT22;10332;50.208;18.988;2022-07-19T10:01:55;36.80;1.00
20349;DHT22;10332;50.208;18.988;2022-07-19T10:04:25;37.90;1.00
20349;DHT22;10332;50.208;18.988;2022-07-19T10:06:54;39.00;1.00
20349;DHT22;10332;50.208;18.988;2022-07-19T10:09:22;39.90;1.00
20349;DHT22;10332;50.208;18.988;2022-07-19T10:11:56;40.60;1.00
20349;DHT22;10332;50.208;18.988;2022-07-19T10:14:24;41.50;1.00
20349;DHT22;10332;50.208;18.988;2022-07-19T10:17:29;42.40;1.00
20349;DHT22;10332;50.208;18.988;2022-07-19T10:20:02;43.30;1.00
20349;DHT22;10332;50.208;18.988;2022-07-19T10:22:33;44.40;1.00
20349;DHT22;10332;50.208;18.988;2022-07-19T10:25:12;45.50;1.00
20349;DHT22;10332;50.208;18.988;2022-07-19T10:27:47;46.40;1.00
20349;DHT22;10332;50.208;18.988;2022-07-19T10:30:20;47.20;1.00
20349;DHT22;10332;50.208;18.988;2022-07-19T10:32:53;47.50;1.00
20349;DHT22;10332;50.208;18.988;2022-07-19T10:35:31;47.70;1.00
20349;DHT22;10332;50.208;18.988;2022-07-19T10:43:15;45.50;1.00
20349;DHT22;10332;50.208;18.988;2022-07-19T10:48:45;42.50;1.00
20349;DHT22;10332;50.208;18.988;2022-07-19T10:51:32;41.10;1.00
20349;DHT22;10332;50.208;18.988;2022-07-19T10:54:05;39.70;1.00
20349;DHT22;10332;50.208;18.988;2022-07-19T10:56:36;38.50;1.00
20349;DHT22;10332;50.208;18.988;2022-07-19T10:59:51;37.60;1.00
20349;DHT22;10332;50.208;18.988;2022-07-19T11:02:24;36.60;1.00
20349;DHT22;10332;50.208;18.988;2022-07-19T11:05:27;35.90;1.00
20349;DHT22;10332;50.208;18.988;2022-07-19T11:07:57;35.30;1.00
20349;DHT22;10332;50.208;18.988;2022-07-19T11:10:27;35.00;1.00
20349;DHT22;10332;50.208;18.988;2022-07-19T11:12:58;34.60;1.00
20349;DHT22;10332;50.208;18.988;2022-07-19T11:15:26;34.40;1.00
20349;DHT22;10332;50.208;18.988;2022-07-19T11:18:06;34.10;1.00
20349;DHT22;10332;50.208;18.988;2022-07-19T11:20:36;33.80;1.00
20349;DHT22;10332;50.208;18.988;2022-07-19T11:23:04;33.60;1.00
20349;DHT22;10332;50.208;18.988;2022-07-19T11:25:35;33.40;1.00
20349;DHT22;10332;50.208;18.988;2022-07-19T11:28:22;33.30;1.00
20349;DHT22;10332;50.208;18.988;2022-07-19T11:30:51;33.20;1.00
20349;DHT22;10332;50.208;18.988;2022-07-19T11:33:19;33.10;1.00
20349;DHT22;10332;50.208;18.988;2022-07-19T11:35:55;33.10;1.00
20349;DHT22;10332;50.208;18.988;2022-07-19T11:38:37;33.10;1.00
20349;DHT22;10332;50.208;18.988;2022-07-19T11:41:24;33.10;1.00
20349;DHT22;10332;50.208;18.988;2022-07-19T11:44:01;32.90;1.00
20349;DHT22;10332;50.208;18.988;2022-07-19T11:46:31;32.80;1.00
20349;DHT22;10332;50.208;18.988;2022-07-19T11:49:09;32.70;1.00
20349;DHT22;10332;50.208;18.988;2022-07-19T11:51:37;32.60;1.00
20349;DHT22;10332;50.208;18.988;2022-07-19T11:54:06;32.50;1.00
20349;DHT22;10332;50.208;18.988;2022-07-19T11:56:35;32.50;1.00
20349;DHT22;10332;50.208;18.988;2022-07-19T11:59:06;32.50;1.00
20349;DHT22;10332;50.208;18.988;2022-07-19T12:01:38;32.60;1.00
20349;DHT22;10332;50.208;18.988;2022-07-19T12:04:08;32.60;1.00
20349;DHT22;10332;50.208;18.988;2022-07-19T12:06:48;32.70;1.00
20349;DHT22;10332;50.208;18.988;2022-07-19T12:09:19;32.80;1.00
20349;DHT22;10332;50.208;18.988;2022-07-19T12:11:55;32.90;1.00
20349;DHT22;10332;50.208;18.988;2022-07-19T12:14:26;33.00;1.00
20349;DHT22;10332;50.208;18.988;2022-07-19T12:17:19;33.00;1.00
20349;DHT22;10332;50.208;18.988;2022-07-19T12:19:50;33.10;1.00
20349;DHT22;10332;50.208;18.988;2022-07-19T12:22:36;33.10;1.00
20349;DHT22;10332;50.208;18.988;2022-07-19T12:25:07;33.00;1.00
20349;DHT22;10332;50.208;18.988;2022-07-19T12:27:37;33.00;1.00
20349;DHT22;10332;50.208;18.988;2022-07-19T12:30:05;33.00;1.00
20349;DHT22;10332;50.208;18.988;2022-07-19T12:32:36;33.00;1.00
20349;DHT22;10332;50.208;18.988;2022-07-19T12:35:11;33.00;1.00
20349;DHT22;10332;50.208;18.988;2022-07-19T12:37:45;33.10;1.00
20349;DHT22;10332;50.208;18.988;2022-07-19T12:40:19;33.10;1.00
20349;DHT22;10332;50.208;18.988;2022-07-19T12:45:33;33.00;1.00
20349;DHT22;10332;50.208;18.988;2022-07-19T12:48:03;33.00;1.00
20349;DHT22;10332;50.208;18.988;2022-07-19T12:50:33;33.00;1.00
20349;DHT22;10332;50.208;18.988;2022-07-19T12:53:06;33.00;1.00
20349;DHT22;10332;50.208;18.988;2022-07-19T12:55:37;33.10;1.00
20349;DHT22;10332;50.208;18.988;2022-07-19T12:58:07;33.10;1.00
20349;DHT22;10332;50.208;18.988;2022-07-19T13:00:36;33.10;1.00
20349;DHT22;10332;50.208;18.988;2022-07-19T13:03:05;33.00;1.00
20349;DHT22;10332;50.208;18.988;2022-07-19T13:05:34;33.20;1.00
20349;DHT22;10332;50.208;18.988;2022-07-19T13:08:02;33.30;1.00
20349;DHT22;10332;50.208;18.988;2022-07-19T13:10:30;33.40;1.00
20349;DHT22;10332;50.208;18.988;2022-07-19T13:12:57;33.50;1.00
20349;DHT22;10332;50.208;18.988;2022-07-19T13:15:25;33.60;1.00
20349;DHT22;10332;50.208;18.988;2022-07-19T13:17:53;33.60;1.00
20349;DHT22;10332;50.208;18.988;2022-07-19T13:20:29;33.40;1.00
20349;DHT22;10332;50.208;18.988;2022-07-19T13:22:57;33.30;1.00
20349;DHT22;10332;50.208;18.988;2022-07-19T13:25:24;33.30;1.00
20349;DHT22;10332;50.208;18.988;2022-07-19T13:28:12;33.20;1.00
20349;DHT22;10332;50.208;18.988;2022-07-19T13:30:39;33.30;1.00
20349;DHT22;10332;50.208;18.988;2022-07-19T13:33:07;33.30;1.00
20349;DHT22;10332;50.208;18.988;2022-07-19T13:35:37;33.40;1.00
20349;DHT22;10332;50.208;18.988;2022-07-19T13:38:06;33.50;1.00
20349;DHT22;10332;50.208;18.988;2022-07-19T13:40:33;33.60;1.00
20349;DHT22;10332;50.208;18.988;2022-07-19T13:43:02;33.70;1.00
20349;DHT22;10332;50.208;18.988;2022-07-19T13:45:29;33.70;1.00
20349;DHT22;10332;50.208;18.988;2022-07-19T13:47:56;33.70;1.00
20349;DHT22;10332;50.208;18.988;2022-07-19T13:50:28;33.80;1.00
20349;DHT22;10332;50.208;18.988;2022-07-19T13:52:57;33.80;1.00
20349;DHT22;10332;50.208;18.988;2022-07-19T13:55:26;33.70;1.00
20349;DHT22;10332;50.208;18.988;2022-07-19T13:57:54;33.70;1.00
20349;DHT22;10332;50.208;18.988;2022-07-19T14:00:21;33.60;1.00
20349;DHT22;10332;50.208;18.988;2022-07-19T14:02:50;33.50;1.00
20349;DHT22;10332;50.208;18.988;2022-07-19T14:05:18;33.50;1.00
20349;DHT22;10332;50.208;18.988;2022-07-19T14:07:45;33.50;1.00
20349;DHT22;10332;50.208;18.988;2022-07-19T14:10:12;33.40;1.00
20349;DHT22;10332;50.208;18.988;2022-07-19T14:12:40;33.50;1.00
20349;DHT22;10332;50.208;18.988;2022-07-19T14:15:08;33.50;1.00
20349;DHT22;10332;50.208;18.988;2022-07-19T14:17:35;33.60;1.00
20349;DHT22;10332;50.208;18.988;2022-07-19T14:20:04;33.50;1.00
20349;DHT22;10332;50.208;18.988;2022-07-19T14:22:32;33.40;1.00
20349;DHT22;10332;50.208;18.988;2022-07-19T14:24:59;33.30;1.00
20349;DHT22;10332;50.208;18.988;2022-07-19T14:27:27;33.30;1.00
20349;DHT22;10332;50.208;18.988;2022-07-19T14:29:55;33.30;1.00
20349;DHT22;10332;50.208;18.988;2022-07-19T14:32:22;33.20;1.00
20349;DHT22;10332;50.208;18.988;2022-07-19T14:34:50;33.30;1.00
20349;DHT22;10332;50.208;18.988;2022-07-19T14:37:17;33.30;1.00
20349;DHT22;10332;50.208;18.988;2022-07-19T14:39:44;33.20;1.00
20349;DHT22;10332;50.208;18.988;2022-07-19T14:42:12;33.10;1.00
20349;DHT22;10332;50.208;18.988;2022-07-19T14:44:39;33.00;1.00
20349;DHT22;10332;50.208;18.988;2022-07-19T14:47:07;32.90;1.00
20349;DHT22;10332;50.208;18.988;2022-07-19T14:49:37;32.70;1.00
20349;DHT22;10332;50.208;18.988;2022-07-19T14:52:05;32.60;1.00
20349;DHT22;10332;50.208;18.988;2022-07-19T14:54:33;32.60;1.00
20349;DHT22;10332;50.208;18.988;2022-07-19T14:57:00;32.50;1.00
20349;DHT22;10332;50.208;18.988;2022-07-19T14:59:27;32.30;1.00
20349;DHT22;10332;50.208;18.988;2022-07-19T15:01:55;32.20;1.00
20349;DHT22;10332;50.208;18.988;2022-07-19T15:04:22;32.10;1.00
20349;DHT22;10332;50.208;18.988;2022-07-19T15:06:50;32.00;1.00
20349;DHT22;10332;50.208;18.988;2022-07-19T15:09:18;32.00;1.00
20349;DHT22;10332;50.208;18.988;2022-07-19T15:11:45;32.00;1.00
20349;DHT22;10332;50.208;18.988;2022-07-19T15:14:13;32.00;1.00
20349;DHT22;10332;50.208;18.988;2022-07-19T15:16:41;32.00;1.00
20349;DHT22;10332;50.208;18.988;2022-07-19T15:19:09;32.00;1.00
20349;DHT22;10332;50.208;18.988;2022-07-19T15:21:37;32.00;1.00
20349;DHT22;10332;50.208;18.988;2022-07-19T15:24:04;32.10;1.00
20349;DHT22;10332;50.208;18.988;2022-07-19T15:26:32;32.00;1.00
20349;DHT22;10332;50.208;18.988;2022-07-19T15:28:59;31.90;1.00
20349;DHT22;10332;50.208;18.988;2022-07-19T15:31:27;31.80;1.00
20349;DHT22;10332;50.208;18.988;2022-07-19T15:33:55;31.90;1.00
20349;DHT22;10332;50.208;18.988;2022-07-19T15:36:22;31.80;1.00
20349;DHT22;10332;50.208;18.988;2022-07-19T15:38:51;31.90;1.00
20349;DHT22;10332;50.208;18.988;2022-07-19T15:41:21;31.90;1.00
20349;DHT22;10332;50.208;18.988;2022-07-19T15:43:57;31.90;1.00
20349;DHT22;10332;50.208;18.988;2022-07-19T15:46:27;31.90;1.00
20349;DHT22;10332;50.208;18.988;2022-07-19T15:48:58;31.90;1.00
20349;DHT22;10332;50.208;18.988;2022-07-19T15:51:28;31.80;1.00